Time;durP1;ratioP1;P1;durP2;ratioP2;P2;SDS_P1;SDS_P2;PMS_P1;PMS_P2;Temp;Humidity;BMP_temperature;BMP_pressure;BME280_temperature;BME280_humidity;BME280_pressure;Samples;Min_cycle;Max_cycle;Signal;HPM_P1;HPM_P2
2022/01/05 00:01:30;;;;;;;7.95;1.60;;;;;;;1.77;88.99;97308.13;5064872;28;20039;-63
2022/01/05 00:03:56;;;;;;;6.63;1.70;;;;;;;1.80;89.21;97304.66;5064698;28;20024;-65
2022/01/05 00:06:21;;;;;;;12.73;2.35;;;;;;;1.85;89.37;97305.38;5064688;28;20060;-64
2022/01/05 00:08:46;;;;;;;3.92;1.50;;;;;;;1.77;89.14;97285.09;5064820;28;20028;-65
2022/01/05 00:11:12;;;;;;;8.60;2.08;;;;;;;1.91;89.13;97305.25;5064472;28;20484;-65
2022/01/05 00:13:37;;;;;;;5.30;1.33;;;;;;;1.94;89.04;97282.16;5064697;28;20017;-65
2022/01/05 00:16:03;;;;;;;8.07;2.75;;;;;;;1.97;89.16;97296.56;5064491;28;20044;-65
2022/01/05 00:18:29;;;;;;;7.10;2.20;;;;;;;1.97;88.90;97299.97;5064526;28;20039;-65
2022/01/05 00:20:55;;;;;;;8.82;1.80;;;;;;;1.98;89.07;97296.53;5064549;28;20024;-65
2022/01/05 00:23:20;;;;;;;9.70;1.40;;;;;;;2.03;88.83;97298.16;5064539;28;20081;-64
2022/01/05 00:25:45;;;;;;;12.32;3.03;;;;;;;2.02;88.84;97305.00;5064450;28;20024;-65
2022/01/05 00:28:11;;;;;;;14.40;2.30;;;;;;;2.04;89.02;97298.13;5063998;28;20436;-65
2022/01/05 00:30:36;;;;;;;2.90;1.45;;;;;;;2.08;88.96;97299.72;5063620;28;20024;-65
2022/01/05 00:33:01;;;;;;;13.32;1.90;;;;;;;2.15;88.99;97309.81;5064323;28;20032;-65
2022/01/05 00:35:27;;;;;;;11.70;2.15;;;;;;;2.18;88.70;97312.28;5062688;28;20021;-65
2022/01/05 00:37:52;;;;;;;7.85;1.90;;;;;;;2.16;88.57;97304.66;5063999;28;20104;-66
2022/01/05 00:40:17;;;;;;;4.20;1.30;;;;;;;2.18;88.52;97313.13;5064101;28;20032;-65
2022/01/05 00:42:43;;;;;;;10.85;1.08;;;;;;;2.15;88.30;97297.84;5063914;28;20017;-64
2022/01/05 00:45:08;;;;;;;3.78;1.27;;;;;;;2.10;88.14;97308.22;5064316;28;20045;-66
2022/01/05 00:47:34;;;;;;;4.90;1.10;;;;;;;2.14;88.14;97310.69;5064146;28;20048;-65
2022/01/05 00:49:59;;;;;;;2.90;1.05;;;;;;;2.08;87.93;97306.53;5063973;28;20021;-65
2022/01/05 00:52:24;;;;;;;5.07;1.58;;;;;;;2.02;87.99;97306.69;5063942;28;20468;-65
2022/01/05 00:54:51;;;;;;;1.50;1.00;;;;;;;2.01;87.95;97307.59;5063975;28;20092;-65
2022/01/05 00:57:17;;;;;;;4.28;0.93;;;;;;;2.02;88.05;97312.66;5063799;28;20029;-65
2022/01/05 00:59:42;;;;;;;9.05;1.75;;;;;;;2.01;87.95;97322.94;5063980;28;20020;-65
2022/01/05 01:02:08;;;;;;;4.43;1.33;;;;;;;2.05;88.11;97319.41;5063915;28;20029;-65
2022/01/05 01:04:33;;;;;;;8.00;1.42;;;;;;;2.01;87.91;97320.38;5063437;28;20040;-65
2022/01/05 01:06:59;;;;;;;14.90;3.95;;;;;;;2.00;88.12;97308.47;5063769;28;20021;-64
2022/01/05 01:09:25;;;;;;;4.47;1.33;;;;;;;1.94;87.99;97310.28;5063717;28;20537;-64
2022/01/05 01:11:50;;;;;;;5.53;1.60;;;;;;;1.94;88.10;97317.97;5063387;28;20128;-64
2022/01/05 01:14:15;;;;;;;12.23;2.00;;;;;;;1.89;88.03;97316.38;5063825;28;20080;-65
2022/01/05 01:16:41;;;;;;;7.97;2.05;;;;;;;1.83;88.45;97307.97;5063494;28;20024;-65
2022/01/05 01:19:06;;;;;;;10.10;2.80;;;;;;;1.83;88.85;97305.44;5063434;28;20021;-64
2022/01/05 01:21:32;;;;;;;8.45;2.50;;;;;;;1.90;88.85;97306.09;5063520;28;20381;-65
2022/01/05 01:23:57;;;;;;;12.70;1.77;;;;;;;1.93;88.79;97307.75;5063297;28;20070;-67
2022/01/05 01:26:28;;;;;;;5.25;1.05;;;;;;;1.88;89.12;97289.97;5063487;28;20032;-62
2022/01/05 01:28:54;;;;;;;6.30;1.40;;;;;;;1.88;89.00;97286.56;5063503;28;20029;-63
2022/01/05 01:31:19;;;;;;;3.78;1.40;;;;;;;1.87;89.50;97297.69;5063370;28;20017;-63
2022/01/05 01:33:45;;;;;;;12.02;1.98;;;;;;;1.86;89.51;97291.72;5063138;28;20024;-65
2022/01/05 01:36:10;;;;;;;7.18;1.60;;;;;;;1.89;89.50;97290.78;5063341;28;20025;-64
2022/01/05 01:38:36;;;;;;;7.63;2.65;;;;;;;1.90;89.73;97283.06;5063345;28;20052;-64
2022/01/05 01:41:02;;;;;;;9.95;2.03;;;;;;;1.92;89.75;97286.44;5065515;28;20031;-62
2022/01/05 01:43:27;;;;;;;1.55;0.98;;;;;;;1.91;89.89;97282.22;5067755;28;20028;-64
2022/01/05 01:45:52;;;;;;;4.18;1.45;;;;;;;1.92;90.20;97280.47;5067191;28;20032;-63
2022/01/05 01:48:18;;;;;;;7.07;1.52;;;;;;;1.95;90.26;97281.25;5067392;28;20021;-64
2022/01/05 01:50:43;;;;;;;15.32;2.53;;;;;;;1.97;90.16;97289.75;5067396;28;20453;-65
2022/01/05 01:53:08;;;;;;;9.55;2.20;;;;;;;1.97;90.27;97284.63;5067223;28;20077;-64
2022/01/05 01:55:37;;;;;;;7.03;2.13;;;;;;;2.01;90.31;97287.09;5067382;28;20060;-64
2022/01/05 01:58:05;;;;;;;9.35;1.95;;;;;;;2.04;90.20;97289.59;5067225;28;20025;-63
2022/01/05 02:00:30;;;;;;;16.35;2.33;;;;;;;2.02;90.16;97284.50;5067299;28;20033;-64
2022/01/05 02:02:56;;;;;;;7.43;1.58;;;;;;;2.04;90.29;97289.59;5067230;28;20092;-64
2022/01/05 02:05:22;;;;;;;11.88;2.05;;;;;;;2.03;90.34;97287.94;5067151;28;20438;-65
2022/01/05 02:07:47;;;;;;;9.25;1.98;;;;;;;2.05;90.57;97293.81;5066894;28;20409;-65
2022/01/05 02:10:13;;;;;;;6.20;2.78;;;;;;;2.05;90.62;97296.38;5067146;28;20064;-66
2022/01/05 02:12:38;;;;;;;10.18;2.08;;;;;;;2.07;90.45;97289.53;5066676;28;20491;-65
2022/01/05 02:15:05;;;;;;;13.48;2.63;;;;;;;2.12;90.52;97285.13;5066909;28;20052;-65
2022/01/05 02:17:50;;;;;;;9.13;2.00;;;;;;;2.15;90.59;97287.63;5066809;28;20044;-66
2022/01/05 02:20:19;;;;;;;11.75;2.28;;;;;;;2.15;90.72;97287.63;5066693;28;20017;-65
2022/01/05 02:22:45;;;;;;;10.65;1.77;;;;;;;2.15;90.72;97287.63;5066826;28;20020;-64
2022/01/05 02:25:11;;;;;;;13.43;1.65;;;;;;;2.16;90.74;97289.28;5065306;28;20029;-65
2022/01/05 02:27:41;;;;;;;6.65;1.60;;;;;;;2.13;90.62;97285.97;5066679;28;20103;-65
2022/01/05 02:30:09;;;;;;;5.20;1.75;;;;;;;2.12;90.63;97289.41;5066846;28;20060;-65
2022/01/05 02:32:34;;;;;;;11.18;1.90;;;;;;;2.12;90.76;97286.84;5066311;28;20020;-65
2022/01/05 02:35:00;;;;;;;13.85;2.58;;;;;;;2.13;90.76;97289.38;5066362;28;20032;-64
2022/01/05 02:37:25;;;;;;;6.28;2.08;;;;;;;2.13;90.78;97285.97;5065231;28;20055;-63
2022/01/05 02:39:50;;;;;;;11.90;2.22;;;;;;;2.10;90.70;97287.72;5066705;28;20017;-65
2022/01/05 02:42:29;;;;;;;14.65;2.38;;;;;;;2.09;90.86;97278.34;5066283;28;20021;-65
2022/01/05 02:44:56;;;;;;;13.75;1.98;;;;;;;2.13;90.88;97289.38;5066357;28;20347;-65
2022/01/05 02:47:22;;;;;;;7.95;2.33;;;;;;;2.16;90.89;97294.41;5066251;28;20033;-64
2022/01/05 02:49:47;;;;;;;3.38;1.35;;;;;;;2.15;90.92;97286.75;5066107;28;20058;-65
2022/01/05 02:52:13;;;;;;;10.68;1.88;;;;;;;2.18;90.94;97295.22;5065060;28;20022;-65
2022/01/05 02:54:39;;;;;;;3.33;1.30;;;;;;;2.15;90.65;97294.44;5066227;28;20480;-64
2022/01/05 02:57:04;;;;;;;9.18;1.73;;;;;;;2.12;90.56;97286.84;5066066;28;20060;-64
2022/01/05 02:59:30;;;;;;;3.42;1.48;;;;;;;2.04;89.74;97292.16;5066018;28;20025;-63
2022/01/05 03:01:55;;;;;;;12.98;1.67;;;;;;;1.93;90.00;97306.03;5065711;28;20068;-65
2022/01/05 03:04:20;;;;;;;12.10;2.13;;;;;;;1.88;90.04;97299.34;5066040;28;20025;-64
2022/01/05 03:06:46;;;;;;;8.93;1.38;;;;;;;1.88;90.03;97307.88;5066020;28;20029;-67
2022/01/05 03:09:11;;;;;;;6.60;1.55;;;;;;;1.79;90.09;97305.53;5064766;28;20079;-66
2022/01/05 03:11:37;;;;;;;8.95;1.90;;;;;;;1.79;90.25;97295.31;5065532;28;20119;-66
2022/01/05 03:14:02;;;;;;;7.40;1.25;;;;;;;1.77;90.21;97299.59;5065871;28;20116;-65
2022/01/05 03:16:28;;;;;;;7.63;1.45;;;;;;;1.66;90.05;97298.13;5065833;28;20025;-65
2022/01/05 03:18:53;;;;;;;4.93;1.23;;;;;;;1.57;90.44;97294.06;5065698;28;20033;-65
2022/01/05 03:21:18;;;;;;;6.55;1.05;;;;;;;1.53;90.35;97289.06;5066016;28;20029;-66
2022/01/05 03:23:46;;;;;;;9.20;1.30;;;;;;;1.50;90.50;97292.53;5065600;28;20483;-64
2022/01/05 03:26:12;;;;;;;8.43;1.38;;;;;;;1.50;91.02;97296.78;5065750;28;20044;-64
2022/01/05 03:28:38;;;;;;;6.75;2.38;;;;;;;1.51;91.22;97291.63;5065611;28;20021;-65
2022/01/05 03:31:04;;;;;;;7.38;1.55;;;;;;;1.54;91.56;97296.69;5065552;28;20181;-62
2022/01/05 03:33:29;;;;;;;7.25;1.38;;;;;;;1.53;91.82;97291.59;5065188;28;20029;-62
2022/01/05 03:35:54;;;;;;;6.00;0.80;;;;;;;1.53;92.17;97289.06;5065503;28;20363;-63
2022/01/05 03:38:20;;;;;;;17.90;2.35;;;;;;;1.56;92.30;97283.88;5065531;28;20040;-63
2022/01/05 03:40:47;;;;;;;10.38;2.15;;;;;;;1.60;92.43;97290.59;5065350;28;20021;-63
2022/01/05 03:43:14;;;;;;;7.90;1.73;;;;;;;1.60;92.54;97294.00;5065332;28;20017;-63
2022/01/05 03:45:40;;;;;;;8.10;1.50;;;;;;;1.59;92.51;97294.03;5065192;28;20272;-63
2022/01/05 03:48:11;;;;;;;13.63;1.92;;;;;;;1.54;92.42;97286.47;5065296;28;20410;-63
2022/01/05 03:50:37;;;;;;;7.63;1.70;;;;;;;1.47;92.44;97295.97;5065156;28;20021;-64
2022/01/05 03:53:04;;;;;;;8.35;1.70;;;;;;;1.45;92.30;97292.59;5065079;28;20020;-62
2022/01/05 03:55:30;;;;;;;15.32;1.92;;;;;;;1.38;92.44;97291.06;5064914;28;20017;-63
2022/01/05 03:57:55;;;;;;;7.45;2.00;;;;;;;1.30;92.16;97290.38;5065034;28;20064;-63
2022/01/05 04:00:21;;;;;;;6.68;1.08;;;;;;;1.17;92.35;97292.34;5065358;28;20025;-65
2022/01/05 04:02:46;;;;;;;12.80;1.98;;;;;;;1.08;92.22;97289.13;5064702;28;20023;-65
2022/01/05 04:05:11;;;;;;;6.93;1.60;;;;;;;0.97;92.02;97288.50;5064788;28;20092;-66
2022/01/05 04:07:37;;;;;;;8.63;1.65;;;;;;;0.91;92.01;97286.88;5064809;28;20025;-65
2022/01/05 04:10:03;;;;;;;10.50;2.25;;;;;;;0.81;92.15;97282.84;5064850;28;20052;-65
2022/01/05 04:12:29;;;;;;;24.35;2.67;;;;;;;0.67;92.31;97276.28;5064300;28;20259;-66
2022/01/05 04:14:54;;;;;;;20.60;2.35;;;;;;;0.59;92.27;97275.59;5063404;28;20044;-65
2022/01/05 04:17:21;;;;;;;18.10;2.70;;;;;;;0.52;92.41;97263.81;5064512;28;20025;-66
2022/01/05 04:19:46;;;;;;;0.65;0.40;;;;;;;0.49;92.12;97263.03;5064475;28;20485;-65
2022/01/05 04:22:12;;;;;;;0.40;0.40;;;;;;;0.48;92.25;97261.31;5064706;28;20036;-67
2022/01/05 04:24:37;;;;;;;0.40;0.40;;;;;;;0.47;92.73;97257.09;5064518;28;20020;-66
2022/01/05 04:27:03;;;;;;;0.40;0.40;;;;;;;0.52;92.89;97258.72;5064340;28;20032;-66
2022/01/05 04:29:28;;;;;;;0.30;0.30;;;;;;;0.57;93.24;97254.38;5064406;28;20036;-67
2022/01/05 04:31:54;;;;;;;0.40;0.40;;;;;;;0.67;93.25;97263.50;5064235;28;20028;-67
2022/01/05 04:34:19;;;;;;;0.30;0.30;;;;;;;0.73;93.57;97270.22;5064205;28;20051;-66
2022/01/05 04:36:45;;;;;;;0.40;0.40;;;;;;;0.69;93.75;97256.69;5064378;28;20116;-65
2022/01/05 04:39:10;;;;;;;0.40;0.40;;;;;;;0.80;93.86;97268.41;5064212;28;20105;-66
2022/01/05 04:41:35;;;;;;;0.38;0.38;;;;;;;0.83;93.88;97270.91;5063946;28;20368;-64
2022/01/05 04:44:01;;;;;;;0.40;0.40;;;;;;;0.93;94.16;97269.84;5064159;28;20029;-65
2022/01/05 04:46:26;;;;;;;0.40;0.40;;;;;;;1.10;94.59;97276.31;5064037;28;20119;-66
2022/01/05 04:48:51;;;;;;;0.30;0.30;;;;;;;1.26;94.80;97276.00;5063605;28;20117;-63
2022/01/05 04:51:17;;;;;;;0.30;0.30;;;;;;;1.41;94.95;97274.81;5063910;28;20076;-64
2022/01/05 04:53:42;;;;;;;0.30;0.30;;;;;;;1.52;95.00;97277.16;5063850;28;20052;-66
2022/01/05 04:56:07;;;;;;;0.40;0.40;;;;;;;1.61;95.07;97267.53;5064019;28;20144;-65
2022/01/05 04:58:33;;;;;;;0.30;0.30;;;;;;;1.72;95.17;97266.47;5063706;28;20087;-65
2022/01/05 05:00:58;;;;;;;0.30;0.30;;;;;;;1.76;95.20;97262.94;5063628;28;20025;-63
2022/01/05 05:03:23;;;;;;;0.30;0.30;;;;;;;1.84;95.26;97262.75;5063874;28;20023;-65
2022/01/05 05:05:49;;;;;;;0.40;0.40;;;;;;;1.88;95.25;97264.38;5063458;28;20129;-65
2022/01/05 05:08:14;;;;;;;0.30;0.30;;;;;;;1.90;95.24;97265.16;5063430;28;20031;-65
2022/01/05 05:10:39;;;;;;;0.30;0.30;;;;;;;1.91;95.15;97254.06;5063676;28;20025;-64
2022/01/05 05:13:12;;;;;;;0.40;0.40;;;;;;;2.00;95.46;97264.97;5063194;28;20063;-65
2022/01/05 05:15:39;;;;;;;0.30;0.30;;;;;;;2.04;95.48;97266.56;5062920;28;20028;-66
2022/01/05 05:18:05;;;;;;;0.35;0.35;;;;;;;2.08;95.61;97260.47;5063554;28;20077;-65
2022/01/05 05:20:32;;;;;;;0.30;0.30;;;;;;;2.10;95.63;97263.84;5063496;28;20025;-65
2022/01/05 05:22:58;;;;;;;0.40;0.40;;;;;;;2.08;95.33;97268.16;5063263;28;20438;-66
2022/01/05 05:25:23;;;;;;;0.32;0.32;;;;;;;2.07;95.35;97272.47;5063354;28;20029;-66
2022/01/05 05:27:49;;;;;;;0.30;0.30;;;;;;;2.07;95.42;97271.59;5063212;28;20020;-66
2022/01/05 05:30:14;;;;;;;0.30;0.30;;;;;;;2.06;95.38;97265.63;5061881;28;20064;-65
2022/01/05 05:32:39;;;;;;;0.30;0.30;;;;;;;2.04;95.36;97269.97;5063082;28;20029;-65
2022/01/05 05:35:05;;;;;;;0.40;0.40;;;;;;;2.07;95.39;97281.84;5063185;28;20025;-64
2022/01/05 05:37:31;;;;;;;0.30;0.30;;;;;;;2.08;95.58;97275.84;5063106;28;20021;-65
2022/01/05 05:39:57;;;;;;;0.40;0.40;;;;;;;2.06;95.50;97269.94;5063324;28;20024;-65
2022/01/05 05:42:22;;;;;;;0.40;0.40;;;;;;;2.05;95.44;97284.44;5062022;28;20028;-66
2022/01/05 05:44:47;;;;;;;0.40;0.40;;;;;;;2.03;95.43;97282.81;5063220;28;20085;-65
2022/01/05 05:47:13;;;;;;;0.40;0.40;;;;;;;1.96;95.30;97279.53;5063066;28;20024;-64
2022/01/05 05:49:38;;;;;;;0.30;0.30;;;;;;;1.94;95.18;97281.28;5062987;28;20055;-63
2022/01/05 05:52:04;;;;;;;0.40;0.40;;;;;;;1.89;95.01;97285.66;5063056;28;20028;-65
2022/01/05 05:54:30;;;;;;;0.30;0.30;;;;;;;1.84;95.05;97291.75;5062901;28;20025;-65
2022/01/05 05:56:55;;;;;;;0.40;0.40;;;;;;;1.76;95.13;97280.03;5062921;28;20021;-64
2022/01/05 05:59:21;;;;;;;0.30;0.30;;;;;;;1.71;94.87;97286.06;5063075;28;20081;-65
2022/01/05 06:01:46;;;;;;;0.40;0.40;;;;;;;1.65;95.04;97293.03;5062830;28;20025;-65
2022/01/05 06:04:11;;;;;;;0.40;0.40;;;;;;;1.58;94.86;97297.47;5061386;28;20071;-65
2022/01/05 06:06:37;;;;;;;0.40;0.40;;;;;;;1.53;94.92;97296.72;5063242;28;20021;-64
2022/01/05 06:09:02;;;;;;;0.40;0.40;;;;;;;1.46;94.90;97294.31;5063116;28;20025;-65
2022/01/05 06:11:28;;;;;;;0.40;0.40;;;;;;;1.41;94.98;97296.09;5062760;28;20056;-64
2022/01/05 06:13:54;;;;;;;0.40;0.40;;;;;;;1.36;94.94;97306.44;5062914;28;20048;-64
2022/01/05 06:16:20;;;;;;;0.40;0.40;;;;;;;1.32;94.90;97307.38;5062912;28;20021;-65
2022/01/05 06:18:45;;;;;;;0.30;0.30;;;;;;;1.31;95.13;97313.34;5062769;28;20035;-64
2022/01/05 06:21:11;;;;;;;0.40;0.40;;;;;;;1.32;95.42;97314.19;5062813;28;20071;-65
2022/01/05 06:23:36;;;;;;;0.35;0.35;;;;;;;1.35;95.37;97316.69;5062787;28;20026;-67
2022/01/05 06:26:01;;;;;;;0.40;0.40;;;;;;;1.38;95.67;97321.75;5063282;28;20028;-65
2022/01/05 06:28:27;;;;;;;0.40;0.40;;;;;;;1.38;95.71;97310.66;5066370;28;20021;-65
2022/01/05 06:30:52;;;;;;;0.40;0.40;;;;;;;1.43;95.80;97319.94;5066680;28;20048;-66
2022/01/05 06:33:18;;;;;;;0.35;0.35;;;;;;;1.46;95.94;97329.25;5066278;28;20372;-66
2022/01/05 06:35:43;;;;;;;0.40;0.40;;;;;;;1.50;95.73;97335.16;5066446;28;20069;-65
2022/01/05 06:38:09;;;;;;;0.30;0.30;;;;;;;1.53;95.93;97340.19;5066378;28;20029;-65
2022/01/05 06:40:35;;;;;;;0.40;0.40;;;;;;;1.59;96.03;97340.91;5066371;28;20437;-65
2022/01/05 06:43:01;;;;;;;0.30;0.30;;;;;;;1.64;96.11;97342.50;5066308;28;20029;-66
2022/01/05 06:45:27;;;;;;;0.40;0.40;;;;;;;1.68;96.17;97350.09;5066517;28;20025;-65
2022/01/05 06:47:52;;;;;;;0.30;0.30;;;;;;;1.73;96.28;97355.09;5066154;28;20039;-65
2022/01/05 06:50:18;;;;;;;0.35;0.35;;;;;;;1.75;96.25;97347.38;5064531;28;20035;-65
2022/01/05 06:52:43;;;;;;;0.30;0.30;;;;;;;1.83;96.51;97356.59;5066255;28;20025;-65
2022/01/05 06:55:09;;;;;;;0.30;0.30;;;;;;;1.90;96.40;97359.00;5066185;28;20017;-66
2022/01/05 06:57:37;;;;;;;0.30;0.30;;;;;;;1.91;96.31;97365.78;5066097;28;20388;-66
2022/01/05 07:00:04;;;;;;;0.38;0.38;;;;;;;1.95;96.23;97370.00;5066293;28;20584;-67
2022/01/05 07:02:30;;;;;;;0.30;0.30;;;;;;;1.97;96.49;97376.75;5065843;28;20021;-67
2022/01/05 07:04:55;;;;;;;0.30;0.30;;;;;;;2.03;96.43;97380.88;5065744;28;20156;-66
2022/01/05 07:07:20;;;;;;;0.30;0.30;;;;;;;2.10;96.51;97386.69;5065931;28;20074;-65
2022/01/05 07:09:46;;;;;;;0.30;0.30;;;;;;;2.12;96.74;97384.09;5065997;28;20084;-65
2022/01/05 07:12:11;;;;;;;0.30;0.30;;;;;;;2.15;96.62;97384.88;5065621;28;20053;-65
2022/01/05 07:14:36;;;;;;;0.30;0.30;;;;;;;2.08;96.64;97379.06;5065921;28;20033;-65
2022/01/05 07:17:02;;;;;;;0.30;0.30;;;;;;;2.23;96.58;97398.34;5065702;28;20021;-64
2022/01/05 07:19:27;;;;;;;0.30;0.30;;;;;;;2.25;96.65;97397.47;5065546;28;20048;-65
2022/01/05 07:21:53;;;;;;;0.30;0.30;;;;;;;2.27;96.53;97398.28;5065748;28;20052;-66
2022/01/05 07:24:19;;;;;;;0.30;0.30;;;;;;;2.30;96.49;97401.59;5065753;28;20074;-65
2022/01/05 07:26:46;;;;;;;0.30;0.30;;;;;;;2.32;96.59;97406.66;5065919;28;20021;-65
2022/01/05 07:29:12;;;;;;;0.30;0.30;;;;;;;2.31;96.29;97415.22;5065533;28;20028;-65
2022/01/05 07:31:38;;;;;;;0.30;0.30;;;;;;;2.29;96.25;97415.28;5065484;28;20024;-65
2022/01/05 07:34:04;;;;;;;0.30;0.30;;;;;;;2.32;96.40;97411.78;5065093;28;20025;-64
2022/01/05 07:36:29;;;;;;;0.32;0.32;;;;;;;2.32;96.52;97412.63;5065519;28;20049;-65
2022/01/05 07:38:54;;;;;;;0.30;0.30;;;;;;;2.34;96.47;97410.03;5064902;28;20109;-65
2022/01/05 07:41:20;;;;;;;0.30;0.30;;;;;;;2.39;96.55;97421.03;5065215;28;20090;-65
2022/01/05 07:43:45;;;;;;;0.40;0.40;;;;;;;2.39;96.65;97432.97;5064885;28;20067;-65
2022/01/05 07:46:11;;;;;;;0.30;0.30;;;;;;;2.39;96.59;97428.72;5065202;28;20036;-64
2022/01/05 07:48:36;;;;;;;0.30;0.30;;;;;;;2.43;96.70;97437.16;5063890;28;20025;-65
2022/01/05 07:51:01;;;;;;;0.40;0.40;;;;;;;2.44;96.75;97436.28;5065082;28;20035;-65
2022/01/05 07:53:27;;;;;;;0.30;0.30;;;;;;;2.49;96.74;97442.16;5064915;28;20362;-65
2022/01/05 07:55:52;;;;;;;0.30;0.30;;;;;;;2.52;96.99;97438.66;5065065;28;20060;-65
2022/01/05 07:58:20;;;;;;;0.30;0.30;;;;;;;2.48;96.52;97443.84;5064990;28;20025;-65
2022/01/05 08:00:45;;;;;;;0.30;0.30;;;;;;;2.43;96.66;97442.28;5065130;28;20103;-65
2022/01/05 08:03:10;;;;;;;0.40;0.40;;;;;;;2.44;96.54;97442.25;5065047;28;20119;-65
2022/01/05 08:05:36;;;;;;;0.40;0.40;;;;;;;2.43;96.62;97445.66;5064735;28;20028;-65
2022/01/05 08:08:01;;;;;;;0.30;0.30;;;;;;;2.39;96.65;97441.50;5064774;28;20025;-65
2022/01/05 08:10:26;;;;;;;0.40;0.40;;;;;;;2.40;96.64;97450.88;5064803;28;20025;-65
2022/01/05 08:12:52;;;;;;;0.40;0.40;;;;;;;2.38;96.48;97447.47;5064513;28;20049;-64
2022/01/05 08:15:17;;;;;;;0.30;0.30;;;;;;;2.38;96.61;97464.59;5064715;28;20077;-64
2022/01/05 08:17:43;;;;;;;0.40;0.40;;;;;;;2.38;96.63;97467.97;5064667;28;20025;-64
2022/01/05 08:20:11;;;;;;;0.30;0.30;;;;;;;2.38;96.75;97470.53;5064347;28;20021;-65
2022/01/05 08:22:46;;;;;;;0.40;0.40;;;;;;;2.33;96.39;97472.38;5064797;28;20080;-65
2022/01/05 08:25:16;;;;;;;0.30;0.30;;;;;;;2.27;96.34;97467.41;5064181;28;20025;-66
2022/01/05 08:27:46;;;;;;;0.40;0.40;;;;;;;2.25;96.35;97481.94;5064359;28;20043;-64
2022/01/05 08:30:14;;;;;;;0.40;0.40;;;;;;;2.22;96.49;97480.28;5064557;28;20044;-65
2022/01/05 08:32:40;;;;;;;0.30;0.30;;;;;;;2.18;96.39;97482.06;5063871;28;20021;-65
2022/01/05 08:35:06;;;;;;;0.40;0.40;;;;;;;2.18;96.26;97487.19;5064142;28;20032;-65
2022/01/05 08:37:31;;;;;;;0.40;0.40;;;;;;;2.18;96.43;97489.75;5064212;28;20028;-65
2022/01/05 08:39:56;;;;;;;0.40;0.40;;;;;;;2.22;96.71;97501.59;5064187;28;20508;-64
2022/01/05 08:42:22;;;;;;;0.40;0.40;;;;;;;2.24;96.63;97504.13;5064169;28;20029;-66
2022/01/05 08:44:47;;;;;;;0.30;0.30;;;;;;;2.26;96.71;97507.50;5064175;28;20083;-66
2022/01/05 08:47:13;;;;;;;0.40;0.40;;;;;;;2.28;96.70;97510.88;5063663;28;20021;-65
2022/01/05 08:49:38;;;;;;;0.30;0.30;;;;;;;2.28;96.75;97515.16;5063006;28;20029;-65
2022/01/05 08:52:04;;;;;;;0.30;0.30;;;;;;;2.28;96.54;97518.56;5063654;28;20116;-65
2022/01/05 08:54:29;;;;;;;0.30;0.30;;;;;;;2.26;96.42;97524.56;5063703;28;20078;-64
2022/01/05 08:56:54;;;;;;;0.38;0.38;;;;;;;2.19;96.27;97522.13;5063879;28;20017;-65
2022/01/05 08:59:20;;;;;;;0.30;0.30;;;;;;;2.17;96.53;97525.63;5063740;28;20104;-65
2022/01/05 09:01:46;;;;;;;0.40;0.40;;;;;;;2.16;96.44;97542.69;5063723;28;20039;-65
2022/01/05 09:04:11;;;;;;;0.40;0.40;;;;;;;2.19;96.59;97544.34;5063641;28;20082;-66
2022/01/05 09:06:37;;;;;;;0.40;0.40;;;;;;;2.16;96.57;97550.38;5062521;28;20025;-66
2022/01/05 09:09:03;;;;;;;0.30;0.30;;;;;;;2.16;96.79;97560.59;5063595;28;20052;-65
2022/01/05 09:11:28;;;;;;;0.40;0.40;;;;;;;2.16;96.82;97562.31;5063383;28;20029;-65
2022/01/05 09:13:54;;;;;;;0.40;0.40;;;;;;;2.13;96.61;97568.34;5063400;28;20033;-65
2022/01/05 09:16:20;;;;;;;0.40;0.40;;;;;;;2.08;96.62;97572.69;5063454;28;20028;-64
2022/01/05 09:18:46;;;;;;;0.40;0.40;;;;;;;2.03;96.53;97572.78;5063173;28;20020;-63
2022/01/05 09:21:11;;;;;;;0.40;0.40;;;;;;;1.98;96.54;97569.50;5063612;28;20054;-65
2022/01/05 09:23:37;;;;;;;0.38;0.38;;;;;;;1.99;96.64;97586.53;5063395;28;20021;-65
2022/01/05 09:26:03;;;;;;;0.40;0.40;;;;;;;1.90;96.45;97591.84;5063521;28;20033;-66
2022/01/05 09:28:29;;;;;;;0.35;0.35;;;;;;;1.86;96.48;97591.03;5063297;28;20028;-65
2022/01/05 09:30:54;;;;;;;0.30;0.30;;;;;;;1.83;96.53;97588.53;5061742;28;20027;-65
2022/01/05 09:33:22;;;;;;;0.40;0.40;;;;;;;1.81;96.56;97608.19;5063007;28;20051;-65
2022/01/05 09:35:49;;;;;;;0.40;0.40;;;;;;;1.77;96.47;97609.13;5063095;28;20029;-64
2022/01/05 09:38:34;;;;;;;0.40;0.40;;;;;;;1.73;96.53;97614.28;5063262;28;20048;-64
2022/01/05 09:44:04;;;;;;;0.50;0.50;;;;;;;1.65;96.51;97626.34;5001698;28;20030;-66
2022/01/05 09:46:36;;;;;;;0.40;0.40;;;;;;;1.50;96.46;97617.25;5001406;28;20041;-66
2022/01/05 09:49:06;;;;;;;0.50;0.50;;;;;;;1.52;96.66;97630.00;5000959;28;20094;-66
2022/01/05 09:51:33;;;;;;;0.30;0.30;;;;;;;1.56;96.96;97636.75;5001275;28;20031;-65
2022/01/05 09:54:02;;;;;;;0.40;0.40;;;;;;;1.55;96.78;97642.75;5001147;28;20026;-63
2022/01/05 09:56:30;;;;;;;0.40;0.40;;;;;;;1.54;96.85;97648.72;5001338;28;20030;-65
2022/01/05 09:59:00;;;;;;;0.40;0.40;;;;;;;1.51;96.69;97651.31;5001012;28;20040;-65
2022/01/05 10:01:26;;;;;;;0.40;0.40;;;;;;;1.48;96.63;97670.97;5002336;28;20026;-65
2022/01/05 10:03:52;;;;;;;0.30;0.30;;;;;;;1.42;96.50;97671.03;5004789;28;20057;-62
2022/01/05 10:06:17;;;;;;;0.40;0.40;;;;;;;1.38;96.52;97674.53;5004836;28;20038;-65
2022/01/05 10:08:44;;;;;;;0.30;0.30;;;;;;;1.37;96.63;97677.97;5004885;28;20038;-67
2022/01/05 10:11:10;;;;;;;0.40;0.40;;;;;;;1.33;96.62;97686.53;5005006;28;20062;-64
2022/01/05 10:13:35;;;;;;;0.40;0.40;;;;;;;1.30;96.61;97684.00;5004517;28;20122;-65
2022/01/05 10:16:01;;;;;;;0.40;0.40;;;;;;;1.22;96.49;97700.31;5004823;28;20046;-64
2022/01/05 10:18:38;;;;;;;0.30;0.30;;;;;;;1.17;96.58;97696.97;5047297;28;20033;-66
2022/01/05 10:21:06;;;;;;;0.30;0.30;;;;;;;1.13;96.57;97700.44;5066876;28;20025;-65
2022/01/05 10:23:52;;;;;;;0.40;0.40;;;;;;;1.09;96.68;97697.09;5066757;28;20017;-64
2022/01/05 10:26:31;;;;;;;0.30;0.30;;;;;;;1.05;96.55;97705.69;5066899;28;20253;-66
2022/01/05 10:29:03;;;;;;;0.40;0.40;;;;;;;1.06;96.82;97717.56;5066811;28;20078;-65
2022/01/05 10:31:30;;;;;;;;;;;;;;;1.07;96.77;97720.97;5067499;28;20379;-65
2022/01/05 10:33:57;;;;;;;0.30;0.30;;;;;;;1.02;96.86;97717.63;5066264;28;19912;-64
2022/01/05 10:36:23;;;;;;;0.30;0.30;;;;;;;1.00;96.96;97715.09;5066630;28;20472;-66
2022/01/05 10:38:57;;;;;;;0.30;0.30;;;;;;;1.01;97.17;97715.97;5066521;28;20052;-66
2022/01/05 10:41:26;;;;;;;0.40;0.40;;;;;;;1.02;97.40;97727.84;5066354;28;20035;-66
2022/01/05 10:44:15;;;;;;;0.40;0.40;;;;;;;1.02;97.08;97725.31;5066190;28;20017;-66
2022/01/05 10:46:51;;;;;;;0.30;0.30;;;;;;;0.99;97.07;97723.66;5066472;28;20025;-65
2022/01/05 10:49:37;;;;;;;0.40;0.40;;;;;;;1.01;97.11;97736.41;5066353;28;20314;-67
2022/01/05 10:52:20;;;;;;;0.40;0.40;;;;;;;0.98;97.09;97739.81;5066227;28;20109;-66
2022/01/05 10:54:46;;;;;;;0.40;0.40;;;;;;;1.03;97.17;97755.09;5065887;28;20051;-66
2022/01/05 10:57:13;;;;;;;0.40;0.40;;;;;;;1.03;97.28;97760.19;5065961;28;20071;-64
2022/01/05 10:59:44;;;;;;;0.40;0.40;;;;;;;1.05;97.36;97755.91;5066147;28;20061;-66
2022/01/05 11:02:19;;;;;;;0.40;0.40;;;;;;;1.08;97.25;97771.22;5065992;28;20048;-64
2022/01/05 11:04:45;;;;;;;0.40;0.40;;;;;;;1.08;97.32;97772.06;5065698;28;20104;-66
2022/01/05 11:07:19;;;;;;;0.40;0.40;;;;;;;1.09;97.22;97781.41;5066200;28;20048;-64
2022/01/05 11:09:57;;;;;;;0.40;0.40;;;;;;;1.11;97.38;97779.69;5065945;28;20017;-64
2022/01/05 11:12:32;;;;;;;0.40;0.40;;;;;;;1.10;97.30;97795.88;5065000;28;20053;-64
2022/01/05 11:15:16;;;;;;;0.38;0.38;;;;;;;1.11;97.19;97791.63;5065537;28;20028;-64
2022/01/05 11:18:01;;;;;;;0.40;0.40;;;;;;;1.12;97.19;97790.75;5065609;28;20021;-64
2022/01/05 11:20:27;;;;;;;0.40;0.40;;;;;;;1.14;97.42;97789.03;5065471;28;20044;-63
2022/01/05 11:22:53;;;;;;;0.30;0.30;;;;;;;1.19;97.53;97794.94;5065970;28;20441;-64
2022/01/05 11:25:18;;;;;;;0.40;0.40;;;;;;;1.29;97.65;97805.88;5065480;28;20033;-63
2022/01/05 11:27:44;;;;;;;0.38;0.38;;;;;;;1.39;98.01;97798.91;5065273;28;20063;-63
2022/01/05 11:30:09;;;;;;;0.40;0.40;;;;;;;1.42;97.68;97806.56;5065416;28;20032;-64
2022/01/05 11:32:35;;;;;;;0.30;0.30;;;;;;;1.42;97.51;97823.63;5065357;28;20021;-63
2022/01/05 11:35:05;;;;;;;0.40;0.40;;;;;;;1.61;97.86;97816.56;5065304;28;20097;-64
2022/01/05 11:37:30;;;;;;;0.30;0.30;;;;;;;1.96;97.59;97835.66;5065186;28;20553;-63
2022/01/05 11:39:56;;;;;;;0.40;0.40;;;;;;;1.98;97.23;97828.78;5065195;28;20029;-64
2022/01/05 11:42:29;;;;;;;0.40;0.40;;;;;;;1.88;97.17;97828.97;5065231;28;20028;-64